Time;durP1;ratioP1;P1;durP2;ratioP2;P2;SDS_P1;SDS_P2;PMS_P1;PMS_P2;Temp;Humidity;BMP_temperature;BMP_pressure;BME280_temperature;BME280_humidity;BME280_pressure;Samples;Min_cycle;Max_cycle;Signal;HPM_P1;HPM_P2
2022/11/19 00:01:14;;;;;;;11.88;8.80;;;;;;;0.12;69.65;100962.66;1702577;82;21126;-83
2022/11/19 00:03:41;;;;;;;14.50;8.13;;;;;;;0.09;69.57;100961.14;1691837;82;21077;-83
2022/11/19 00:06:18;;;;;;;11.43;8.45;;;;;;;0.13;69.69;100964.44;1703799;82;21031;-83
2022/11/19 00:08:45;;;;;;;11.57;8.33;;;;;;;0.13;69.75;100957.59;1702906;82;20980;-83
2022/11/19 00:11:13;;;;;;;11.78;9.23;;;;;;;0.15;69.75;100956.01;1703500;82;20961;-84
2022/11/19 00:13:41;;;;;;;13.05;9.33;;;;;;;0.17;69.75;100958.30;1705902;82;20980;-83
2022/11/19 00:16:11;;;;;;;14.23;9.00;;;;;;;0.21;69.79;100961.09;1702176;82;21573;-83
2022/11/19 00:18:39;;;;;;;13.13;9.35;;;;;;;0.22;69.86;100959.02;1675964;83;37870;-83
2022/11/19 00:21:09;;;;;;;20.65;11.63;;;;;;;0.24;69.80;100958.31;1702373;82;21775;-83
2022/11/19 00:23:36;;;;;;;16.95;10.45;;;;;;;0.28;69.91;100962.02;1704050;82;21063;-84
2022/11/19 00:26:13;;;;;;;16.02;10.10;;;;;;;0.27;69.78;100962.83;1703324;82;21000;-84
2022/11/19 00:28:40;;;;;;;18.82;10.48;;;;;;;0.24;69.73;100953.55;1701925;82;20975;-84
2022/11/19 00:31:11;;;;;;;13.48;9.78;;;;;;;0.23;69.83;100955.66;1699358;82;21003;-83
2022/11/19 00:33:40;;;;;;;12.73;9.75;;;;;;;0.24;69.76;100960.02;1702951;82;21728;-84
2022/11/19 00:36:09;;;;;;;13.55;9.80;;;;;;;0.19;69.59;100960.60;1694871;82;20970;-83
2022/11/19 00:38:36;;;;;;;12.68;9.25;;;;;;;0.16;69.70;100960.38;1701171;82;21008;-84
2022/11/19 00:41:02;;;;;;;14.85;9.83;;;;;;;0.16;69.64;100958.19;1707203;82;21029;-84
2022/11/19 00:43:48;;;;;;;15.93;10.45;;;;;;;0.13;69.62;100949.83;1715192;81;21515;-84
2022/11/19 00:46:20;;;;;;;14.07;9.23;;;;;;;0.14;69.73;100951.61;1707136;81;22628;-84
2022/11/19 00:48:48;;;;;;;14.73;9.95;;;;;;;0.16;69.75;100951.72;1709929;82;21523;-83
2022/11/19 00:51:15;;;;;;;11.73;8.43;;;;;;;0.18;69.79;100951.43;1713379;82;20962;-83
2022/11/19 00:53:42;;;;;;;11.03;7.97;;;;;;;0.18;69.73;100951.02;1716194;81;20986;-83
2022/11/19 00:56:11;;;;;;;10.60;7.75;;;;;;;0.15;69.66;100946.02;1713993;82;20994;-83
2022/11/19 00:58:38;;;;;;;13.98;8.70;;;;;;;0.15;69.78;100940.48;1711600;82;21693;-83
2022/11/19 01:01:05;;;;;;;11.38;7.95;;;;;;;0.11;69.61;100948.83;1710312;82;21845;-83
2022/11/19 01:03:31;;;;;;;11.43;8.28;;;;;;;0.08;69.77;100948.60;1716101;82;20987;-83
2022/11/19 01:05:58;;;;;;;10.72;7.58;;;;;;;0.04;69.72;100949.19;1711968;82;20990;-83
2022/11/19 01:08:24;;;;;;;11.55;7.22;;;;;;;0.04;69.95;100952.14;1712848;82;21102;-83
2022/11/19 01:10:52;;;;;;;13.15;8.30;;;;;;;0.08;69.96;100948.60;1713194;82;21695;-83
2022/11/19 01:13:34;;;;;;;11.53;8.13;;;;;;;0.10;69.94;100941.84;1712661;82;21357;-83
2022/11/19 01:16:20;;;;;;;11.73;7.50;;;;;;;0.08;69.89;100942.13;1713744;81;20975;-83
2022/11/19 01:18:48;;;;;;;9.63;7.15;;;;;;;0.05;69.92;100939.72;1708045;82;21741;-83
2022/11/19 01:21:15;;;;;;;11.18;7.47;;;;;;;0.04;69.89;100936.61;1713001;82;20983;-83
2022/11/19 01:23:42;;;;;;;11.08;7.60;;;;;;;0.05;69.99;100941.02;1706393;81;21748;-83
2022/11/19 01:26:09;;;;;;;9.88;7.00;;;;;;;0.07;70.06;100934.25;1711822;82;20981;-83
2022/11/19 01:28:35;;;;;;;12.30;7.55;;;;;;;0.11;70.16;100934.59;1709489;82;21399;-84
2022/11/19 01:31:15;;;;;;;11.10;8.13;;;;;;;0.15;70.24;100936.59;1714595;82;21476;-84
2022/11/19 01:33:41;;;;;;;14.50;8.70;;;;;;;0.18;70.31;100937.19;1708119;82;21034;-83
2022/11/19 01:36:15;;;;;;;12.18;8.75;;;;;;;0.20;70.28;100936.90;1712866;81;22614;-83
2022/11/19 01:38:43;;;;;;;14.65;9.78;;;;;;;0.23;70.33;100933.65;1706896;82;20997;-83
2022/11/19 01:41:10;;;;;;;11.83;9.45;;;;;;;0.24;70.27;100932.83;1711441;81;21013;-84
2022/11/19 01:43:50;;;;;;;13.48;9.63;;;;;;;0.25;70.35;100926.48;1702626;82;21063;-84
2022/11/19 01:46:21;;;;;;;13.80;10.45;;;;;;;0.25;70.33;100923.89;1702456;82;20996;-83
2022/11/19 01:49:12;;;;;;;14.93;11.25;;;;;;;0.25;70.30;100926.88;1702026;82;21728;-83
2022/11/19 01:51:52;;;;;;;16.95;11.43;;;;;;;0.18;70.29;100922.55;1702414;82;20964;-85
2022/11/19 01:54:29;;;;;;;17.67;12.35;;;;;;;0.13;70.44;100921.36;1703575;82;21567;-85
2022/11/19 01:56:59;;;;;;;15.90;12.13;;;;;;;0.13;70.54;100918.77;1696828;82;20968;-85
2022/11/19 01:59:26;;;;;;;17.00;12.82;;;;;;;0.12;70.53;100922.13;1701569;82;21431;-85
2022/11/19 02:01:52;;;;;;;18.65;13.32;;;;;;;0.11;70.67;100918.14;1704089;82;22569;-83
2022/11/19 02:04:19;;;;;;;17.42;13.58;;;;;;;0.13;70.82;100918.77;1702285;82;20991;-83
2022/11/19 02:06:46;;;;;;;18.27;14.10;;;;;;;0.16;70.92;100919.36;1698119;82;20967;-83
2022/11/19 02:09:13;;;;;;;19.50;13.30;;;;;;;0.17;70.84;100918.59;1696937;82;21136;-83
2022/11/19 02:12:05;;;;;;;18.62;13.75;;;;;;;0.18;70.89;100919.96;1701003;82;21047;-84
2022/11/19 02:15:07;;;;;;;18.65;13.40;;;;;;;0.15;70.85;100916.26;1703230;82;22558;-84
2022/11/19 02:18:12;;;;;;;19.05;12.15;;;;;;;0.10;70.84;100913.77;1701483;82;21081;-85
2022/11/19 02:21:15;;;;;;;20.60;13.28;;;;;;;0.11;71.19;100902.23;1702954;82;27260;-84
2022/11/19 02:23:56;;;;;;;16.32;11.88;;;;;;;0.11;71.19;100902.23;1698238;82;21677;-84
2022/11/19 02:26:55;;;;;;;14.25;9.80;;;;;;;0.11;70.94;100901.31;1698507;82;21105;-83
2022/11/19 02:30:04;;;;;;;14.60;11.43;;;;;;;0.12;70.97;100898.84;1698104;82;21702;-84
2022/11/19 02:32:45;;;;;;;14.53;11.18;;;;;;;0.13;70.94;100898.43;1701950;82;21094;-83
2022/11/19 02:35:23;;;;;;;15.15;10.63;;;;;;;0.11;70.93;100898.73;1702409;82;21731;-83
2022/11/19 02:38:16;;;;;;;14.93;9.75;;;;;;;0.09;70.94;100897.32;1691699;82;21086;-83
2022/11/19 02:40:51;;;;;;;13.62;8.83;;;;;;;0.11;71.03;100897.44;1685686;82;21053;-83
2022/11/19 02:43:26;;;;;;;12.28;8.58;;;;;;;0.11;71.00;100888.37;1720702;81;21803;-83
2022/11/19 02:46:07;;;;;;;11.05;8.38;;;;;;;0.09;70.97;100889.55;1715234;81;21328;-83
2022/11/19 02:48:45;;;;;;;14.90;8.60;;;;;;;0.07;71.02;100887.27;1717235;81;21066;-83
2022/11/19 02:51:12;;;;;;;9.48;7.00;;;;;;;0.08;71.08;100890.77;1713550;81;21561;-84
2022/11/19 02:53:39;;;;;;;9.03;6.30;;;;;;;0.07;70.95;100888.55;1637039;85;20998;-83
2022/11/19 02:56:35;;;;;;;8.63;6.53;;;;;;;0.03;70.92;100883.97;1652168;85;21357;-83
2022/11/19 03:04:31;;;;;;;8.90;6.60;;;;;;;-0.02;70.97;100880.16;1711050;82;21027;-84
2022/11/19 03:07:08;;;;;;;9.68;7.37;;;;;;;-0.03;70.87;100875.38;1700205;82;21598;-83
2022/11/19 03:09:39;;;;;;;11.03;6.97;;;;;;;-0.04;71.00;100878.78;1704520;82;21743;-83
2022/11/19 03:12:14;;;;;;;8.88;7.37;;;;;;;-0.04;71.07;100873.98;1685709;82;21026;-84
2022/11/19 03:17:54;;;;;;;9.20;7.30;;;;;;;-0.03;71.04;100883.14;1704293;82;20996;-83
2022/11/19 03:20:34;;;;;;;10.78;8.93;;;;;;;-0.06;70.96;100881.63;1670476;83;21110;-84
2022/11/19 03:23:11;;;;;;;12.28;8.88;;;;;;;-0.07;71.10;100879.84;1700385;82;22616;-83
2022/11/19 03:25:44;;;;;;;12.20;8.93;;;;;;;-0.07;71.15;100878.55;1707310;82;21011;-84
2022/11/19 03:28:15;;;;;;;9.53;7.90;;;;;;;-0.06;71.19;100874.27;1708406;82;21081;-84
2022/11/19 03:30:42;;;;;;;10.78;7.87;;;;;;;-0.07;71.15;100875.97;1703256;82;21014;-84
2022/11/19 03:33:28;;;;;;;12.00;8.23;;;;;;;-0.09;71.18;100880.55;1705025;82;21003;-84
2022/11/19 03:35:59;;;;;;;12.03;9.33;;;;;;;-0.13;71.11;100877.22;1698363;82;22512;-84
2022/11/19 03:38:32;;;;;;;14.23;9.35;;;;;;;-0.15;71.20;100878.43;1709350;82;20999;-84
2022/11/19 03:41:00;;;;;;;12.35;9.00;;;;;;;-0.13;71.25;100874.63;1707327;82;20972;-84
2022/11/19 03:43:29;;;;;;;11.38;9.75;;;;;;;-0.11;71.25;100875.26;1708398;82;21078;-84
2022/11/19 03:45:56;;;;;;;12.23;8.98;;;;;;;-0.13;71.25;100870.75;1688315;83;21112;-84
2022/11/19 03:48:22;;;;;;;11.33;9.25;;;;;;;-0.10;71.35;100869.68;1706195;82;21733;-83
2022/11/19 03:50:59;;;;;;;11.95;9.70;;;;;;;-0.12;71.28;100861.80;1700678;82;20980;-83
2022/11/19 03:53:26;;;;;;;11.53;9.53;;;;;;;-0.15;71.32;100861.61;1697763;82;21003;-83
2022/11/19 03:56:04;;;;;;;11.88;9.75;;;;;;;-0.15;71.32;100859.02;1685090;83;21019;-83
2022/11/19 03:58:37;;;;;;;14.05;9.30;;;;;;;-0.17;71.39;100863.16;1699240;82;21023;-83
2022/11/19 04:01:04;;;;;;;12.37;9.70;;;;;;;-0.18;71.39;100863.09;1658394;82;22962;-84
2022/11/19 04:03:31;;;;;;;12.82;10.43;;;;;;;-0.21;71.43;100858.20;1708656;81;21505;-85
2022/11/19 04:05:57;;;;;;;13.55;11.15;;;;;;;-0.24;71.43;100863.55;1710902;81;20998;-83
2022/11/19 04:08:24;;;;;;;12.95;10.75;;;;;;;-0.26;71.47;100860.86;1714267;81;20980;-83
2022/11/19 04:10:51;;;;;;;12.53;10.05;;;;;;;-0.28;71.53;100861.15;1720638;81;21407;-83
2022/11/19 04:13:17;;;;;;;10.18;7.78;;;;;;;-0.29;71.54;100861.03;1717897;81;21728;-83
2022/11/19 04:15:44;;;;;;;10.20;7.67;;;;;;;-0.34;71.46;100858.52;1712249;81;21011;-83
2022/11/19 04:18:11;;;;;;;9.80;7.10;;;;;;;-0.42;71.37;100861.86;1716608;81;20973;-83
2022/11/19 04:20:37;;;;;;;10.28;6.75;;;;;;;-0.48;71.48;100862.31;1718274;81;20986;-83
2022/11/19 04:23:04;;;;;;;8.88;6.75;;;;;;;-0.50;71.61;100863.91;1719899;81;21031;-83
2022/11/19 04:25:31;;;;;;;10.38;7.22;;;;;;;-0.50;71.58;100863.02;1718698;81;21734;-84
2022/11/19 04:27:58;;;;;;;9.95;7.03;;;;;;;-0.52;71.68;100868.47;1713032;81;21033;-83
2022/11/19 04:30:25;;;;;;;10.08;7.00;;;;;;;-0.52;71.79;100859.02;1719778;81;20962;-84
2022/11/19 04:32:52;;;;;;;12.13;7.60;;;;;;;-0.53;71.70;100855.02;1714704;81;21617;-84
2022/11/19 04:35:20;;;;;;;11.68;7.33;;;;;;;-0.58;71.78;100852.12;1716377;81;20981;-84
2022/11/19 04:37:48;;;;;;;8.15;6.53;;;;;;;-0.56;71.83;100857.38;1716813;81;22611;-84
2022/11/19 04:40:14;;;;;;;10.23;6.50;;;;;;;-0.53;71.93;100856.31;1716279;81;21002;-84
2022/11/19 04:42:41;;;;;;;7.47;6.05;;;;;;;-0.54;71.86;100858.02;1710095;81;21322;-83
2022/11/19 04:45:09;;;;;;;7.58;6.03;;;;;;;-0.57;71.79;100851.73;1703388;82;21817;-83
2022/11/19 04:47:36;;;;;;;8.15;5.95;;;;;;;-0.56;71.88;100849.63;1672605;83;21038;-84
2022/11/19 04:50:04;;;;;;;9.55;6.62;;;;;;;-0.55;71.95;100843.68;1698294;82;21742;-83
2022/11/19 04:52:31;;;;;;;7.97;5.20;;;;;;;-0.53;71.92;100848.56;1704778;82;21484;-83
2022/11/19 04:54:58;;;;;;;8.23;5.70;;;;;;;-0.56;71.80;100850.92;1694763;82;21010;-84
2022/11/19 04:57:25;;;;;;;8.75;6.30;;;;;;;-0.61;71.87;100844.14;1695959;82;21011;-83
2022/11/19 04:59:51;;;;;;;8.45;6.28;;;;;;;-0.61;71.93;100848.02;1699823;82;20969;-83
2022/11/19 05:02:18;;;;;;;8.48;6.40;;;;;;;-0.63;71.87;100843.14;1693743;82;21748;-83
2022/11/19 05:04:44;;;;;;;8.03;6.80;;;;;;;-0.66;71.96;100842.54;1705762;81;20956;-83
2022/11/19 05:07:11;;;;;;;10.65;7.35;;;;;;;-0.69;71.90;100844.89;1701618;82;20960;-82
2022/11/19 05:09:38;;;;;;;12.23;7.55;;;;;;;-0.69;72.10;100841.02;1703928;82;21071;-83
2022/11/19 05:12:06;;;;;;;13.48;8.70;;;;;;;-0.71;72.03;100839.09;1704223;82;21046;-83
2022/11/19 05:14:32;;;;;;;12.53;9.15;;;;;;;-0.75;72.13;100838.00;1701802;82;21720;-83
2022/11/19 05:16:59;;;;;;;12.82;9.15;;;;;;;-0.71;72.25;100842.97;1701247;82;20979;-83
2022/11/19 05:19:26;;;;;;;12.03;9.30;;;;;;;-0.72;72.24;100838.20;1695442;82;20979;-83
2022/11/19 05:21:52;;;;;;;11.80;9.23;;;;;;;-0.72;72.21;100843.77;1702543;82;21452;-83
2022/11/19 05:24:21;;;;;;;12.75;10.15;;;;;;;-0.73;72.36;100840.67;1701018;82;21105;-82
2022/11/19 05:26:48;;;;;;;12.80;10.15;;;;;;;-0.72;72.36;100838.20;1698599;82;22635;-81
2022/11/19 05:29:14;;;;;;;15.03;11.68;;;;;;;-0.74;72.41;100837.20;1701737;82;21465;-81
2022/11/19 05:31:41;;;;;;;17.50;12.28;;;;;;;-0.74;72.43;100842.77;1702168;82;21089;-81
2022/11/19 05:34:08;;;;;;;16.10;12.70;;;;;;;-0.72;72.51;100844.66;1703228;82;21155;-81
2022/11/19 05:36:34;;;;;;;17.57;12.88;;;;;;;-0.74;72.49;100843.66;1703402;82;21000;-80
2022/11/19 05:39:01;;;;;;;17.40;14.25;;;;;;;-0.73;72.55;100845.47;1697578;82;22365;-81
2022/11/19 05:41:28;;;;;;;19.65;15.08;;;;;;;-0.74;72.59;100846.24;1711595;82;21053;-81
2022/11/19 05:43:55;;;;;;;22.37;16.20;;;;;;;-0.73;72.59;100844.55;1702713;82;21793;-83
2022/11/19 05:46:22;;;;;;;23.57;16.32;;;;;;;-0.73;72.71;100839.38;1663605;82;21025;-83
2022/11/19 05:48:49;;;;;;;24.50;17.02;;;;;;;-0.73;72.72;100838.08;1703915;82;20998;-84
2022/11/19 05:51:16;;;;;;;23.65;19.07;;;;;;;-0.72;72.79;100836.91;1700031;82;22563;-80
2022/11/19 05:53:42;;;;;;;23.38;17.12;;;;;;;-0.70;72.90;100840.50;1695526;82;20967;-80
2022/11/19 05:56:09;;;;;;;20.77;17.10;;;;;;;-0.70;72.85;100843.08;1693814;83;21382;-81
2022/11/19 05:58:36;;;;;;;21.70;16.17;;;;;;;-0.71;72.92;100844.27;1690977;82;20978;-81
2022/11/19 06:01:02;;;;;;;20.55;16.70;;;;;;;-0.70;72.94;100849.95;1688342;82;21037;-79
2022/11/19 06:03:29;;;;;;;23.38;17.30;;;;;;;-0.72;72.98;100846.36;1692407;82;21751;-80
2022/11/19 06:05:56;;;;;;;24.32;18.90;;;;;;;-0.72;73.08;100848.95;1690399;82;21038;-78
2022/11/19 06:08:23;;;;;;;21.02;17.30;;;;;;;-0.69;73.14;100853.05;1687630;83;20966;-81
2022/11/19 06:10:50;;;;;;;22.93;17.73;;;;;;;-0.68;73.16;100849.66;1689099;82;20990;-82
2022/11/19 06:13:16;;;;;;;24.67;17.70;;;;;;;-0.70;73.11;100850.84;1651545;84;21000;-79
2022/11/19 06:15:43;;;;;;;28.02;17.80;;;;;;;-0.69;73.17;100851.76;1689370;83;21746;-80
2022/11/19 06:18:10;;;;;;;22.13;18.10;;;;;;;-0.73;73.10;100849.34;1694975;82;21050;-78
2022/11/19 06:20:36;;;;;;;25.90;18.07;;;;;;;-0.72;73.24;100848.95;1687449;82;21029;-80
2022/11/19 06:23:03;;;;;;;26.02;18.50;;;;;;;-0.72;73.22;100847.25;1684285;83;21563;-81
2022/11/19 06:25:30;;;;;;;24.70;17.70;;;;;;;-0.72;73.30;100851.13;1691839;83;21030;-81
2022/11/19 06:27:56;;;;;;;21.75;15.75;;;;;;;-0.71;73.25;100849.06;1691352;83;21959;-81
2022/11/19 06:30:23;;;;;;;20.08;15.53;;;;;;;-0.71;73.23;100857.19;1689272;82;21546;-81
2022/11/19 06:32:50;;;;;;;21.25;15.08;;;;;;;-0.73;73.26;100857.10;1701529;82;20974;-82
2022/11/19 06:35:17;;;;;;;18.20;14.70;;;;;;;-0.74;73.25;100861.75;1690336;83;22179;-82
2022/11/19 06:37:44;;;;;;;18.70;15.13;;;;;;;-0.77;73.23;100855.46;1683354;83;21646;-80
2022/11/19 06:40:12;;;;;;;20.20;15.58;;;;;;;-0.78;73.36;100857.16;1686592;82;23021;-81
2022/11/19 06:42:39;;;;;;;19.35;15.00;;;;;;;-0.73;73.42;100861.34;1699009;82;21074;-81
2022/11/19 06:45:10;;;;;;;25.05;16.95;;;;;;;-0.74;73.43;100855.29;1710518;82;21056;-81
2022/11/19 06:47:38;;;;;;;22.58;16.07;;;;;;;-0.76;73.42;100859.86;1680333;84;21142;-81
2022/11/19 06:50:06;;;;;;;21.17;16.00;;;;;;;-0.74;73.42;100856.98;1613191;85;21099;-81
2022/11/19 06:52:32;;;;;;;27.77;18.27;;;;;;;-0.71;73.54;100855.89;1643501;85;21740;-82
2022/11/19 06:54:59;;;;;;;28.50;19.73;;;;;;;-0.69;73.52;100859.11;1647022;85;21097;-83
2022/11/19 06:57:26;;;;;;;32.25;21.65;;;;;;;-0.65;73.56;100859.83;1708741;82;21016;-84
2022/11/19 06:59:53;;;;;;;30.43;21.23;;;;;;;-0.61;73.67;100850.61;1694817;82;21147;-82
2022/11/19 07:02:19;;;;;;;31.45;22.02;;;;;;;-0.54;73.64;100861.00;1709065;82;21054;-82
2022/11/19 07:04:46;;;;;;;28.47;19.30;;;;;;;-0.49;73.61;100854.45;1703028;82;22579;-83
2022/11/19 07:07:13;;;;;;;30.80;20.23;;;;;;;-0.49;73.48;100858.33;1703281;82;21205;-82
2022/11/19 07:09:40;;;;;;;27.60;19.30;;;;;;;-0.40;73.78;100854.70;1698554;82;21055;-81
2022/11/19 07:12:07;;;;;;;31.07;20.57;;;;;;;-0.33;73.57;100857.33;1701735;82;21273;-77
2022/11/19 07:14:34;;;;;;;35.92;23.35;;;;;;;-0.31;73.51;100848.39;1708989;82;21670;-80
2022/11/19 07:17:01;;;;;;;45.17;25.08;;;;;;;-0.28;73.44;100851.17;1708526;82;21070;-83
2022/11/19 07:19:28;;;;;;;46.50;27.90;;;;;;;-0.25;73.29;100854.88;1698704;82;22081;-81
2022/11/19 07:21:55;;;;;;;38.63;24.30;;;;;;;-0.22;73.27;100853.80;1696177;82;21064;-83
2022/11/19 07:24:22;;;;;;;35.65;23.55;;;;;;;-0.18;73.27;100856.22;1703685;82;21134;-86
2022/11/19 07:26:49;;;;;;;29.80;21.30;;;;;;;-0.15;73.11;100851.63;1700029;82;21145;-83
2022/11/19 07:29:15;;;;;;;30.88;21.57;;;;;;;-0.20;72.91;100859.09;1701774;82;21754;-82
2022/11/19 07:31:42;;;;;;;29.23;20.90;;;;;;;-0.24;72.91;100855.80;1701287;82;21050;-81
2022/11/19 07:34:09;;;;;;;29.80;20.37;;;;;;;-0.24;72.97;100855.80;1698678;82;21049;-84
2022/11/19 07:36:36;;;;;;;31.75;21.30;;;;;;;-0.26;72.99;100859.56;1699483;82;21106;-81
2022/11/19 07:39:04;;;;;;;29.02;20.35;;;;;;;-0.18;73.16;100863.09;1703796;82;21132;-82
2022/11/19 07:44:16;;;;;;;28.15;19.95;;;;;;;-0.16;73.03;100859.80;1717621;81;21586;-81
2022/11/19 07:46:43;;;;;;;24.70;17.02;;;;;;;-0.10;72.97;100862.80;1722175;81;21085;-83
2022/11/19 07:49:10;;;;;;;26.77;17.87;;;;;;;-0.09;72.80;100858.55;1710788;81;21057;-83
2022/11/19 07:51:36;;;;;;;26.93;18.40;;;;;;;-0.13;72.74;100860.03;1718997;81;21082;-83
2022/11/19 07:54:03;;;;;;;25.23;18.02;;;;;;;-0.12;72.74;100856.63;1698610;82;21772;-85
2022/11/19 07:56:30;;;;;;;25.10;18.00;;;;;;;-0.09;72.75;100855.97;1706659;82;21070;-85
2022/11/19 07:59:00;;;;;;;24.72;17.48;;;;;;;-0.05;72.65;100859.27;1692352;82;21054;-84
2022/11/19 08:01:26;;;;;;;25.52;16.90;;;;;;;-0.10;72.53;100856.74;1718079;82;21140;-84
2022/11/19 08:03:54;;;;;;;25.08;17.45;;;;;;;-0.13;72.58;100853.56;1701289;82;21098;-84
2022/11/19 08:06:20;;;;;;;29.90;19.25;;;;;;;-0.17;72.39;100860.98;1707702;82;23097;-85
2022/11/19 08:08:47;;;;;;;30.65;19.90;;;;;;;-0.14;72.63;100861.20;1691294;83;21077;-83
2022/11/19 08:11:14;;;;;;;29.45;19.05;;;;;;;-0.14;72.49;100865.09;1704146;82;21156;-83
2022/11/19 08:13:41;;;;;;;26.42;18.90;;;;;;;-0.14;72.50;100859.91;1701331;82;20988;-84
2022/11/19 08:16:10;;;;;;;34.23;20.70;;;;;;;-0.09;72.60;100863.32;1707358;82;20983;-84
2022/11/19 08:18:37;;;;;;;40.17;22.27;;;;;;;-0.07;72.60;100856.97;1703902;82;21687;-84
2022/11/19 08:21:09;;;;;;;35.10;20.60;;;;;;;-0.01;72.57;100866.03;1708109;82;21134;-83
2022/11/19 08:23:36;;;;;;;35.08;21.05;;;;;;;0.07;72.71;100861.38;1683657;83;21058;-83
2022/11/19 08:26:05;;;;;;;28.23;19.73;;;;;;;0.18;72.63;100861.72;1705912;82;21014;-83
2022/11/19 08:28:32;;;;;;;32.25;21.12;;;;;;;0.25;72.44;100865.64;1706725;82;21066;-83
2022/11/19 08:31:06;;;;;;;29.63;19.50;;;;;;;0.24;72.28;100864.23;1707584;82;22578;-82
2022/11/19 08:33:33;;;;;;;33.30;20.37;;;;;;;0.30;72.34;100860.75;1708021;82;21053;-85
2022/11/19 08:36:00;;;;;;;28.35;19.10;;;;;;;0.37;72.29;100863.86;1684181;82;21205;-84
2022/11/19 08:38:26;;;;;;;27.07;18.90;;;;;;;0.45;72.24;100866.99;1707753;82;21657;-85
2022/11/19 08:42:58;;;;;;;31.20;20.15;;;;;;;0.53;72.18;100861.92;1697711;82;21057;-85
2022/11/19 08:43:22;;;;;;;33.40;19.62;;;;;;;0.64;72.33;100864.31;1678338;83;21870;-85
2022/11/19 08:45:53;;;;;;;34.85;21.52;;;;;;;0.70;71.98;100860.45;1649154;85;21667;-86
2022/11/19 08:48:20;;;;;;;33.40;20.65;;;;;;;0.67;71.80;100858.94;1651249;84;21076;-85
2022/11/19 08:50:47;;;;;;;33.63;19.25;;;;;;;0.70;71.84;100860.86;1652558;84;21102;-84
2022/11/19 08:53:13;;;;;;;29.27;19.65;;;;;;;0.74;71.78;100865.44;1652195;84;21155;-84
2022/11/19 08:55:40;;;;;;;28.73;18.90;;;;;;;0.80;71.83;100859.36;1652969;85;21747;-84
2022/11/19 08:58:07;;;;;;;28.95;18.27;;;;;;;0.83;71.68;100860.86;1650172;84;21032;-84
2022/11/19 09:00:35;;;;;;;27.35;18.75;;;;;;;0.88;71.63;100859.86;1650273;85;21003;-84
2022/11/19 09:03:03;;;;;;;29.45;19.30;;;;;;;0.94;71.63;100858.58;1651227;84;21040;-84
2022/11/19 09:05:29;;;;;;;27.77;19.00;;;;;;;0.99;71.51;100857.56;1680044;83;21463;-83
2022/11/19 09:07:56;;;;;;;28.65;18.98;;;;;;;1.03;71.36;100858.66;1678178;83;22591;-83
2022/11/19 09:10:23;;;;;;;27.52;18.62;;;;;;;1.07;71.34;100858.98;1654947;85;21097;-84
2022/11/19 09:12:51;;;;;;;26.27;18.10;;;;;;;1.14;71.30;100858.55;1654857;85;21039;-84
2022/11/19 09:15:19;;;;;;;26.50;17.77;;;;;;;1.18;71.25;100857.05;1652492;85;21176;-84
2022/11/19 09:17:45;;;;;;;29.25;19.10;;;;;;;1.23;71.18;100854.77;1660890;84;21641;-83
2022/11/19 09:20:12;;;;;;;22.17;16.75;;;;;;;1.25;71.03;100860.54;1668225;84;21753;-83
2022/11/19 09:22:39;;;;;;;25.65;18.05;;;;;;;1.28;71.03;100861.16;1664042;84;21153;-84
2022/11/19 09:25:07;;;;;;;26.50;18.02;;;;;;;1.26;70.82;100857.54;1659402;84;21073;-85
2022/11/19 09:27:36;;;;;;;29.02;19.17;;;;;;;1.25;70.64;100860.54;1663396;84;21263;-85
2022/11/19 09:30:06;;;;;;;25.20;17.37;;;;;;;1.21;70.75;100864.16;1663837;84;21046;-86
2022/11/19 09:32:33;;;;;;;26.20;18.35;;;;;;;1.17;70.67;100863.05;1672486;84;21818;-85
2022/11/19 09:34:59;;;;;;;25.35;17.32;;;;;;;1.16;70.61;100858.66;1675967;84;21409;-84
2022/11/19 09:37:30;;;;;;;27.27;17.60;;;;;;;1.14;70.55;100861.55;1666219;84;21099;-86
2022/11/19 09:39:55;;;;;;;27.87;18.95;;;;;;;1.14;70.56;100852.06;1661460;84;22026;-86
2022/11/19 09:42:49;;;;;;;32.75;20.55;;;;;;;1.04;70.44;100850.98;1668391;84;21117;-88
2022/11/19 09:45:24;;;;;;;28.52;18.98;;;;;;;0.94;70.49;100852.09;1663459;84;21771;-86
2022/11/19 09:48:21;;;;;;;31.07;19.98;;;;;;;0.92;70.64;100856.66;1672141;84;21025;-87
2022/11/19 09:51:05;;;;;;;27.87;18.40;;;;;;;0.86;70.55;100854.56;1662592;84;21030;-87
2022/11/19 09:53:52;;;;;;;28.55;18.35;;;;;;;0.83;70.70;100854.80;1719432;82;21112;-84
2022/11/19 09:56:38;;;;;;;32.60;19.40;;;;;;;0.74;70.52;100854.66;1714083;82;21061;-86
2022/11/19 09:59:10;;;;;;;29.82;19.62;;;;;;;0.69;70.76;100857.75;1717148;82;21807;-86
2022/11/19 10:01:37;;;;;;;30.25;19.00;;;;;;;0.69;70.77;100856.05;1708572;81;21306;-86
2022/11/19 10:04:04;;;;;;;28.98;19.00;;;;;;;0.69;70.81;100853.86;1712459;81;21057;-85
2022/11/19 10:06:55;;;;;;;29.87;20.72;;;;;;;0.74;70.89;100853.78;1709698;81;21142;-87
2022/11/19 10:09:44;;;;;;;30.55;20.48;;;;;;;0.78;70.79;100851.47;1719566;81;21117;-86
2022/11/19 10:12:31;;;;;;;34.38;21.10;;;;;;;0.73;70.54;100856.78;1719796;82;22464;-84
2022/11/19 10:15:30;;;;;;;33.95;21.05;;;;;;;0.69;70.59;100855.16;1708133;81;21122;-85
2022/11/19 10:18:22;;;;;;;34.10;22.20;;;;;;;0.63;70.49;100856.05;1712967;81;21669;-88
2022/11/19 10:21:00;;;;;;;32.63;20.88;;;;;;;0.62;70.85;100853.87;1717206;81;21068;-86
2022/11/19 10:23:41;;;;;;;28.12;19.52;;;;;;;0.70;70.93;100847.49;1707971;82;21062;-87
2022/11/19 10:26:15;;;;;;;28.65;19.10;;;;;;;0.71;70.76;100847.09;1717540;82;21910;-88
2022/11/19 10:28:55;;;;;;;28.12;19.20;;;;;;;0.69;70.71;100846.09;1711503;81;21662;-87
2022/11/19 10:31:33;;;;;;;29.12;19.98;;;;;;;0.69;71.03;100839.20;1713218;81;21456;-85
2022/11/19 10:34:32;;;;;;;31.00;19.92;;;;;;;0.84;71.15;100845.80;1706909;82;21003;-84
2022/11/19 10:37:12;;;;;;;28.25;20.70;;;;;;;0.92;71.01;100842.41;1714903;82;21022;-84
2022/11/19 10:39:43;;;;;;;28.52;19.45;;;;;;;0.95;70.89;100842.20;1711533;82;22635;-86
2022/11/19 10:42:37;;;;;;;29.35;20.97;;;;;;;0.96;70.80;100836.65;1720961;82;21030;-85
2022/11/19 10:45:17;;;;;;;31.73;21.82;;;;;;;0.97;70.87;100842.31;1716750;81;20991;-84
2022/11/19 10:48:11;;;;;;;30.88;20.35;;;;;;;1.07;70.98;100836.94;1715721;81;20979;-83
2022/11/19 10:50:38;;;;;;;30.85;21.17;;;;;;;1.16;70.90;100834.94;1719077;81;21313;-83
2022/11/19 10:53:20;;;;;;;29.02;20.50;;;;;;;1.17;70.75;100843.61;1694048;81;22887;-83
2022/11/19 10:55:50;;;;;;;31.00;21.45;;;;;;;1.18;70.67;100841.91;1723458;81;21003;-83
2022/11/19 10:58:37;;;;;;;31.12;21.95;;;;;;;1.25;70.75;100842.80;1720675;81;21530;-86
2022/11/19 11:01:06;;;;;;;34.95;23.62;;;;;;;1.27;70.64;100835.60;1713494;82;21686;-87
2022/11/19 11:04:20;;;;;;;37.23;23.18;;;;;;;1.34;70.45;100831.30;1697010;83;21051;-86
2022/11/19 11:07:06;;;;;;;29.42;20.27;;;;;;;1.31;70.32;100835.02;1703126;82;21770;-84
2022/11/19 11:09:35;;;;;;;38.30;24.82;;;;;;;1.35;70.36;100830.89;1705010;82;21071;-87
2022/11/19 11:15:24;;;;;;;33.65;22.73;;;;;;;1.31;70.05;100834.10;1702361;82;21028;-84
2022/11/19 11:18:02;;;;;;;33.58;22.70;;;;;;;1.32;69.97;100832.02;1702422;82;21105;-86
2022/11/19 11:20:29;;;;;;;35.33;23.52;;;;;;;1.28;69.83;100823.15;1701530;82;22013;-86
2022/11/19 11:23:13;;;;;;;31.93;22.37;;;;;;;1.33;69.86;100829.91;1705037;82;21365;-85
2022/11/19 11:25:40;;;;;;;35.98;23.00;;;;;;;1.32;69.88;100823.83;1678414;83;21674;-83
2022/11/19 11:28:16;;;;;;;33.55;22.60;;;;;;;1.40;70.02;100827.31;1701205;82;22009;-83
2022/11/19 11:31:00;;;;;;;36.25;24.60;;;;;;;1.45;69.82;100829.39;1689543;83;21639;-83
2022/11/19 11:33:37;;;;;;;40.40;25.87;;;;;;;1.45;69.73;100826.80;1706178;82;21824;-85
2022/11/19 11:36:18;;;;;;;41.45;28.20;;;;;;;1.47;69.72;100827.80;1697160;82;22206;-84
2022/11/19 11:38:47;;;;;;;45.40;27.42;;;;;;;1.46;69.78;100822.50;1699146;82;21061;-84
2022/11/19 11:41:16;;;;;;;39.20;27.50;;;;;;;1.54;69.74;100826.49;1703468;82;21362;-83
2022/11/19 11:44:00;;;;;;;47.33;30.35;;;;;;;1.51;69.55;100824.99;1698745;82;22055;-85
2022/11/19 11:46:51;;;;;;;41.45;27.50;;;;;;;1.53;69.65;100827.28;1706469;82;21801;-83
2022/11/19 11:49:29;;;;;;;40.92;26.37;;;;;;;1.43;69.37;100825.81;1702187;82;22025;-82
2022/11/19 11:52:04;;;;;;;34.53;24.32;;;;;;;1.34;69.39;100822.64;1707698;82;21085;-82